KVSF/VSF METAR and TAF weather

Enter ICAO airport designator
Station Type Date Time Source
KVSF METAR 2021/03/01 02:54 UTC NOAA

KVSF 010254Z AUTO 00000KT 10SM -RA FEW032 OVC043 03/M03 A3003 RMK AO2 RAB51 SLP175 P0000 60000 T00281028 56026


Station Type Date Time Source
KVSF Decoded METAR 2021/03/01 02:54 UTC NOAA

HARTNESS STATE AIRPORT, VT, United States (KVSF) 43-21N 72-31W 175M
Feb 28, 2021 - 09:54 PM EST / 2021.03.01 0254 UTC
Wind: Calm:0
Visibility: 10 mile(s):0
Sky conditions: overcast
Weather: light rain
Precipitation last hour: A trace
Temperature: 37.0 F (2.8 C)
Dew Point: 27.0 F (-2.8 C)
Relative Humidity: 66%
Pressure (altimeter): 30.03 in. Hg (1016 hPa)
Pressure tendency: 0.08 inches (2.6 hPa) lower than three hours ago
ob: KVSF 010254Z AUTO 00000KT 10SM -RA FEW032 OVC043 03/M03 A3003 RMK AO2 RAB51 SLP175 P0000 60000 T00281028 56026
cycle: 3

Station Type Date Time Source
KVSF TAF UTC NOAA

Error!

Example: see airport list